Nearby Weather Observations


KTIP - Rantoul, Illinois, USA
Distance from station: ENE 12mi, 19km
Updated: Fri, 20-Oct-2017 3:35am CDT
Clear
Clear
 Wind from SE
Wind: SE 3 mph , 6 km/h
Temperature: 52°F , 11°C
Dew Point: 50°F , 10°C
Humidity: 94%
Barometer: 30.19 inHg , 1022.4 hPa
Clouds: Clear
Visibility: 10 miles , 16 km
2017/10/20 08:35 KTIP 200835Z AUTO 13003KT 10SM CLR 11/10 A3019 RMK AO2 T01100096
KCMI - Champaign/Urbana, Illinois, USA
Distance from station: SSE 14mi, 22km
Updated: Fri, 20-Oct-2017 2:53am CDT
Clear
Clear
 Wind from S
Wind: S 7 mph , 11 km/h
Temperature: 55°F , 13°C
Dew Point: 48°F , 9°C
Humidity: 77%
Barometer: 30.19 inHg , 1022.4 hPa
Clouds: Clear
Visibility: 10 miles , 16 km
2017/10/20 07:53 KCMI 200753Z AUTO 18006KT 10SM CLR 13/09 A3019 RMK AO2 SLP220 T01330094
 
KBMI - Bloomington/Norm, Illinois, USA
Distance from station: WNW 34mi, 55km
Updated: Fri, 20-Oct-2017 2:56am CDT
Clear
Clear
 Wind from S
Wind: S 8 mph , 13 km/h
Temperature: 54°F , 12°C
Dew Point: 48°F , 9°C
Humidity: 82%
Barometer: 30.18 inHg , 1022 hPa
Clouds: Clear
Visibility: 10 miles , 16 km
2017/10/20 07:56 KBMI 200756Z AUTO 19007KT 10SM CLR 12/09 A3018 RMK AO2 SLP237 T01170089
KDEC - Decatur, Illinois, USA
Distance from station: SW 37mi, 60km
Updated: Fri, 20-Oct-2017 2:54am CDT
Clear
Clear
 Wind from SSW
Wind: SSW 7 mph , 11 km/h
Temperature: 55°F , 13°C
Dew Point: 48°F , 9°C
Humidity: 77%
Barometer: 30.18 inHg , 1022 hPa
Clouds: Clear
Visibility: 10 miles , 16 km
2017/10/20 07:54 KDEC 200754Z 20006KT 10SM CLR 13/09 A3018 RMK AO2 SLP216 T01280094
 
KDNV - Danville, Illinois, USA
Distance from station: E 40mi, 65km
Updated: Fri, 20-Oct-2017 3:35am CDT
Clear
Clear
 Wind from calm
Wind: Calm
Temperature: 52°F , 11°C
Dew Point: 50°F , 10°C
Humidity: 94%
Barometer: 30.18 inHg , 1022 hPa
Clouds: Clear
Visibility: 10 miles , 16 km
2017/10/20 08:35 KDNV 200835Z AUTO 00000KT 10SM CLR 11/10 A3018 RMK AO2 T01050096
KAAA - Lincoln, Illinois, USA
Distance from station: W 52mi, 83km
Updated: Fri, 20-Oct-2017 3:35am CDT
Clear
Clear
 Wind from S
Wind: S 8 mph , 13 km/h
Temperature: 55°F , 13°C
Dew Point: 52°F , 11°C
Humidity: 88%
Barometer: 30.16 inHg , 1021.3 hPa
Clouds: Clear
Visibility: 10 miles , 16 km
2017/10/20 08:35 KAAA 200835Z AUTO 18007KT 10SM CLR 13/11 A3016 RMK AO2 T01340106
 
KMTO - Mattoon/Charlest, Illinois, USA
Distance from station: S 52mi, 84km
Updated: Fri, 20-Oct-2017 2:53am CDT
Clear
Clear
 Wind from S
Wind: S 7 mph , 11 km/h
Temperature: 57°F , 14°C
Dew Point: 52°F , 11°C
Humidity: 82%
Barometer: 30.19 inHg , 1022.4 hPa
Clouds: Clear
Visibility: 10 miles , 16 km
2017/10/20 07:53 KMTO 200753Z AUTO 18006KT 10SM CLR 14/11 A3019 RMK AO2 SLP219 T01440111
KSPI - Springfield, Illinois, USA
Distance from station: WSW 74mi, 120km
Updated: Fri, 20-Oct-2017 2:52am CDT
Clear
Clear
 Wind from S
Wind: S 7 mph , 11 km/h
Temperature: 59°F , 15°C
Dew Point: 52°F , 11°C
Humidity: 77%
Barometer: 30.16 inHg , 1021.3 hPa
Clouds: Clear
Visibility: 10 miles , 16 km
2017/10/20 07:52 KSPI 200752Z AUTO 19006KT 10SM CLR 15/11 A3016 RMK AO2 SLP208 T01500106
 
KLAF - Lafayette, Indiana, USA
Distance from station: E 76mi, 123km
Updated: Fri, 20-Oct-2017 2:54am CDT
Clear
Clear
 Wind from calm
Wind: Calm
Temperature: 48°F , 9°C
Dew Point: 48°F , 9°C
Humidity: 100%
Barometer: 30.20 inHg , 1022.7 hPa
Clouds: Clear
Visibility: 10 miles , 16 km
2017/10/20 07:54 KLAF 200754Z AUTO 00000KT 10SM CLR 09/09 A3020 RMK AO2 SLP225 T00940094
KPIA - Peoria, Illinois, USA
Distance from station: WNW 76mi, 123km
Updated: Fri, 20-Oct-2017 2:54am CDT
Clear
Clear
 Wind from SSW
Wind: SSW 6 mph , 9 km/h
Temperature: 55°F , 13°C
Dew Point: 50°F , 10°C
Humidity: 82%
Barometer: 30.14 inHg , 1020.7 hPa
Clouds: Clear
Visibility: 10 miles , 16 km
2017/10/20 07:54 KPIA 200754Z 20005KT 10SM CLR 13/10 A3014 RMK AO2 SLP205 T01280100
 
KHUF - Terre Haute, Indiana, USA
Distance from station: SE 77mi, 124km
Updated: Fri, 20-Oct-2017 2:53am CDT
Clear
Clear
 Wind from calm
Wind: Calm
Temperature: 48°F , 9°C
Dew Point: 46°F , 8°C
Humidity: 94%
Barometer: 30.22 inHg , 1023.4 hPa
Clouds: Clear
Visibility: 10 miles , 16 km
2017/10/20 07:53 KHUF 200753Z 00000KT 10SM CLR 09/08 A3022 RMK AO2 SLP232 T00940083
K1H2 - Effingham, Illinois, USA
Distance from station: S 80mi, 129km
Updated: Fri, 20-Oct-2017 3:35am CDT
Clear
Clear
 Wind from ESE
Wind: ESE 3 mph , 6 km/h
Temperature: 50°F , 10°C
Dew Point: 50°F , 10°C
Humidity: 100%
Barometer: 30.22 inHg , 1023.4 hPa
Clouds: Clear
Visibility: 10 miles , 16 km
2017/10/20 08:35 K1H2 200835Z AUTO 11003KT 10SM CLR 10/10 A3022 RMK AO2 T00980098
 
KIND - Indianapolis, Indiana, USA
Distance from station: ESE 117mi, 133km
Updated: Fri, 20-Oct-2017 2:54am CDT
Few Clouds
Few Clouds
 Wind from S
Wind: S 5 mph , 7 km/h
Temperature: 54°F , 12°C
Dew Point: 50°F , 10°C
Humidity: 88%
Barometer: 30.23 inHg , 1023.7 hPa
Clouds: Few Clouds
Visibility: 10 miles , 16 km
Cloud details: Few Clouds 23000 ft
2017/10/20 07:54 KIND 200754Z 19004KT 10SM FEW230 12/10 A3023 RMK AO2 SLP234 T01220100
KORD - Chicago O'hare, Illinois, USA
Distance from station: N 126mi, 203km
Updated: Fri, 20-Oct-2017 2:51am CDT
Few Clouds
Few Clouds
 Wind from S
Wind: S 5 mph , 7 km/h
Temperature: 52°F , 11°C
Dew Point: 39°F , 4°C
Humidity: 62%
Barometer: 30.14 inHg , 1020.7 hPa
Clouds: Few Clouds
Visibility: 10 miles , 16 km
Cloud details: Few Clouds 25000 ft
2017/10/20 07:51 KORD 200751Z 17004KT 10SM FEW250 11/04 A3014 RMK AO2 SLP206 T01110044
 
KSTL - St. Louis, Missouri, USA
Distance from station: SW 150mi, 185km
Updated: Fri, 20-Oct-2017 2:51am CDT
Few Clouds
Few Clouds
 Wind from S
Wind: S 3 mph , 6 km/h
Temperature: 57°F , 14°C
Dew Point: 50°F , 10°C
Humidity: 77%
Barometer: 30.16 inHg , 1021.3 hPa
Clouds: Few Clouds
Visibility: 10 miles , 16 km
Cloud details: Few Clouds 25000 ft
2017/10/20 07:51 KSTL 200751Z 18003KT 10SM FEW250 14/10 A3016 RMK AO2 SLP206 T01440100